createdAt,value
2019-05-15T00:01:42.879Z,41.60
2019-05-15T00:06:34.627Z,42.50
2019-05-15T00:11:25.525Z,42.50
2019-05-15T00:16:18.011Z,43.10
2019-05-15T00:21:09.237Z,43.40
2019-05-15T00:25:58.596Z,43.80
2019-05-15T00:30:49.261Z,44.00
2019-05-15T00:35:40.155Z,42.30
2019-05-15T00:40:31.808Z,42.10
2019-05-15T00:45:22.712Z,42.10
2019-05-15T00:50:14.362Z,43.30
2019-05-15T00:55:05.329Z,43.10
2019-05-15T00:59:56.243Z,43.70
2019-05-15T01:04:47.999Z,43.80
2019-05-15T01:09:38.615Z,44.30
2019-05-15T01:14:29.104Z,44.10
2019-05-15T01:19:20.013Z,42.60
2019-05-15T01:24:10.928Z,42.40
2019-05-15T01:29:01.830Z,42.60
2019-05-15T01:33:52.774Z,43.20
2019-05-15T01:38:43.684Z,43.80
2019-05-15T01:43:34.597Z,44.00
2019-05-15T01:48:25.549Z,44.40
2019-05-15T01:53:18.527Z,44.90
2019-05-15T01:58:09.135Z,43.30
2019-05-15T02:02:59.116Z,43.30
2019-05-15T02:07:50.024Z,42.70
2019-05-15T02:12:40.947Z,43.00
2019-05-15T02:17:31.852Z,43.60
2019-05-15T02:22:22.779Z,44.10
2019-05-15T02:27:13.681Z,44.50
2019-05-15T02:32:04.608Z,45.00
2019-05-15T02:36:55.537Z,45.40
2019-05-15T02:41:49.248Z,45.80
2019-05-15T02:46:39.241Z,44.10
2019-05-15T02:51:29.991Z,43.40
2019-05-15T02:56:20.271Z,43.40
2019-05-15T03:01:11.234Z,44.50
2019-05-15T03:06:02.188Z,44.50
2019-05-15T03:10:53.101Z,44.90
2019-05-15T03:15:44.022Z,45.40
2019-05-15T03:20:34.928Z,45.70
2019-05-15T03:25:25.828Z,46.10
2019-05-15T03:30:21.437Z,45.80
2019-05-15T03:35:13.190Z,44.30
2019-05-15T03:39:59.588Z,43.70
2019-05-15T03:44:50.281Z,44.00
2019-05-15T03:49:41.304Z,45.00
2019-05-15T03:54:32.963Z,45.50
2019-05-15T03:59:23.958Z,45.30
2019-05-15T04:04:18.751Z,46.40
2019-05-15T04:09:09.321Z,46.30
2019-05-15T04:13:59.381Z,46.50
2019-05-15T04:18:49.385Z,45.50
2019-05-15T04:23:40.106Z,44.70
2019-05-15T04:28:31.092Z,44.40
2019-05-15T04:33:21.996Z,44.60
2019-05-15T04:38:13.030Z,45.20
2019-05-15T04:43:04.231Z,45.70
2019-05-15T04:47:55.165Z,46.10
2019-05-15T04:52:46.104Z,46.30
2019-05-15T04:57:39.988Z,46.70
2019-05-15T05:02:32.112Z,46.60
2019-05-15T05:07:19.659Z,46.70
2019-05-15T05:12:10.663Z,45.50
2019-05-15T05:17:01.572Z,44.60
2019-05-15T05:21:52.511Z,45.10
2019-05-15T05:26:43.420Z,45.30
2019-05-15T05:31:34.316Z,46.00
2019-05-15T05:36:27.575Z,46.40
2019-05-15T05:41:16.174Z,46.70
2019-05-15T05:46:09.178Z,47.10
2019-05-15T05:50:58.475Z,47.20
2019-05-15T05:55:52.924Z,45.40
2019-05-15T06:00:41.568Z,44.50
2019-05-15T06:05:32.568Z,44.50
2019-05-15T06:10:23.557Z,45.40
2019-05-15T06:15:14.460Z,46.20
2019-05-15T06:20:05.398Z,46.70
2019-05-15T06:24:57.900Z,47.50
2019-05-15T06:29:48.497Z,48.00
2019-05-15T06:34:39.550Z,47.80
2019-05-15T06:39:30.664Z,48.20
2019-05-15T06:44:21.600Z,47.60
2019-05-15T06:49:12.514Z,46.40
2019-05-15T06:54:03.422Z,46.70
2019-05-15T06:58:54.366Z,47.50
2019-05-15T07:03:52.312Z,47.80
2019-05-15T07:08:43.273Z,48.10
2019-05-15T07:13:34.221Z,48.20
2019-05-15T07:18:28.170Z,48.50
2019-05-15T07:23:18.549Z,47.20
2019-05-15T07:28:08.888Z,47.20
2019-05-15T07:32:59.599Z,46.30
2019-05-15T07:37:50.498Z,46.40
2019-05-15T07:42:41.574Z,46.80
2019-05-15T07:47:33.235Z,46.90
2019-05-15T07:52:24.176Z,46.80
2019-05-15T07:57:15.101Z,46.70
2019-05-15T08:02:08.294Z,46.50
2019-05-15T08:06:59.107Z,43.70
2019-05-15T08:11:48.895Z,43.70
2019-05-15T08:16:40.534Z,43.60
2019-05-15T08:21:31.438Z,43.60
2019-05-15T08:26:22.330Z,44.10
2019-05-15T08:31:13.307Z,44.30
2019-05-15T08:36:04.319Z,44.10
2019-05-15T08:40:55.226Z,44.10
2019-05-15T08:45:46.133Z,43.10
2019-05-15T08:50:39.032Z,41.60
2019-05-15T08:55:28.209Z,41.20
2019-05-15T09:00:18.954Z,42.00
2019-05-15T09:05:09.888Z,41.50
2019-05-15T09:10:00.808Z,42.00
2019-05-15T09:14:51.732Z,41.50
2019-05-15T09:19:42.647Z,41.30
2019-05-15T09:24:33.553Z,40.10
2019-05-15T09:29:24.464Z,39.90
2019-05-15T09:34:15.453Z,39.80
2019-05-15T09:39:08.627Z,39.70
2019-05-15T09:43:57.914Z,39.80
2019-05-15T09:48:51.813Z,40.20
2019-05-15T09:53:39.891Z,40.20
2019-05-15T09:58:30.826Z,39.20
2019-05-15T10:03:21.756Z,38.30
2019-05-15T10:08:12.688Z,39.50
2019-05-15T10:13:04.432Z,39.60
2019-05-15T10:17:55.341Z,39.80
2019-05-15T10:22:48.280Z,39.90
2019-05-15T10:27:39.850Z,39.20
2019-05-15T10:32:29.197Z,39.20
2019-05-15T10:37:19.854Z,39.50
2019-05-15T10:42:10.750Z,38.10
2019-05-15T10:47:01.655Z,38.60
2019-05-15T10:51:52.555Z,38.60
2019-05-15T10:56:43.477Z,39.00
2019-05-15T11:01:34.406Z,38.70
2019-05-15T11:06:25.316Z,39.00
2019-05-15T11:11:18.198Z,39.10
2019-05-15T11:16:07.174Z,39.50
2019-05-15T11:20:59.321Z,39.10
2019-05-15T11:25:49.116Z,39.50
2019-05-15T11:30:40.028Z,38.30
2019-05-15T11:35:30.937Z,38.20
2019-05-15T11:40:21.951Z,39.10
2019-05-15T11:45:12.873Z,39.80
2019-05-15T11:50:03.840Z,39.00
2019-05-15T11:54:55.483Z,38.10
2019-05-15T11:59:54.794Z,38.50
2019-05-15T12:04:38.378Z,39.10
2019-05-15T12:09:28.457Z,39.40
2019-05-15T12:14:20.141Z,39.30
2019-05-15T12:24:03.534Z,38.50
2019-05-15T12:28:54.438Z,38.50
2019-05-15T12:33:45.347Z,38.10
2019-05-15T12:38:39.651Z,38.40
2019-05-15T13:02:51.691Z,37.00
2019-05-15T13:07:42.612Z,37.30
2019-05-15T13:12:33.534Z,38.20
2019-05-15T13:17:24.473Z,38.00
2019-05-15T13:22:18.125Z,38.30
2019-05-15T13:27:07.785Z,37.80
2019-05-15T13:31:58.409Z,36.50
2019-05-15T13:36:48.679Z,37.20
2019-05-15T13:41:39.329Z,37.20
2019-05-15T13:46:32.817Z,37.60
2019-05-15T13:51:21.182Z,37.80
2019-05-15T13:56:12.093Z,36.80
2019-05-15T14:01:03.046Z,36.20
2019-05-15T14:05:54.715Z,36.90
2019-05-15T14:10:45.629Z,37.30
2019-05-15T14:15:38.352Z,37.70
2019-05-15T14:20:27.589Z,37.80
2019-05-15T14:25:18.555Z,38.20
2019-05-15T14:30:09.462Z,37.40
2019-05-15T14:35:00.386Z,37.30
2019-05-15T14:39:52.287Z,36.90
2019-05-15T14:44:42.270Z,37.90
2019-05-15T14:49:34.953Z,38.20
2019-05-15T14:54:24.183Z,38.90
2019-05-15T14:59:15.834Z,37.50
2019-05-15T15:04:08.954Z,37.80
2019-05-15T15:08:59.289Z,37.80
2019-05-15T15:13:50.138Z,38.90
2019-05-15T15:18:41.069Z,38.90
2019-05-15T15:23:32.068Z,39.20
2019-05-15T15:28:22.992Z,39.60
2019-05-15T15:33:13.913Z,38.60
2019-05-15T15:38:04.839Z,38.90
2019-05-15T15:42:57.893Z,39.60
2019-05-15T15:47:48.130Z,40.20
2019-05-15T15:52:38.442Z,40.60
2019-05-15T15:57:29.337Z,39.70
2019-05-15T16:02:20.255Z,39.70
2019-05-15T16:07:11.256Z,39.60
2019-05-15T16:12:02.165Z,40.20
2019-05-15T16:16:53.112Z,40.30
2019-05-15T16:21:44.033Z,40.50
2019-05-15T16:26:34.938Z,40.90
2019-05-15T16:31:27.785Z,39.60
2019-05-15T16:36:18.294Z,39.50
2019-05-15T16:41:09.060Z,39.90
2019-05-15T16:45:59.439Z,40.40
2019-05-15T16:50:50.564Z,40.40
2019-05-15T16:55:41.496Z,41.10
2019-05-15T17:00:32.440Z,39.90
2019-05-15T17:05:23.506Z,39.30
2019-05-15T17:10:14.414Z,39.60
2019-05-15T17:15:08.320Z,40.40
2019-05-15T17:19:57.934Z,40.30
2019-05-15T17:24:48.831Z,40.70
2019-05-15T17:29:39.037Z,41.30
2019-05-15T17:34:29.956Z,40.20
2019-05-15T17:39:33.805Z,39.90
2019-05-15T17:44:12.148Z,40.30
2019-05-15T17:49:08.840Z,41.20
2019-05-15T17:53:55.580Z,41.90
2019-05-15T17:58:48.646Z,41.90
2019-05-15T18:03:39.235Z,41.00
2019-05-15T18:08:29.145Z,40.60
2019-05-15T18:13:20.093Z,40.60
2019-05-15T18:18:11.008Z,41.30
2019-05-15T18:23:01.970Z,41.60
2019-05-15T18:27:52.884Z,42.20
2019-05-15T18:32:43.873Z,42.20
2019-05-15T18:37:35.658Z,41.50
2019-05-15T18:42:29.242Z,42.30
2019-05-15T18:47:18.881Z,42.30
2019-05-15T18:52:09.178Z,42.80
2019-05-15T18:57:00.093Z,43.60
2019-05-15T19:01:51.046Z,44.40
2019-05-15T19:06:41.960Z,43.20
2019-05-15T19:11:32.886Z,42.60
2019-05-15T19:16:23.790Z,43.60
2019-05-15T19:21:14.705Z,44.30
2019-05-15T19:26:05.694Z,44.40
2019-05-15T19:30:58.564Z,45.10
2019-05-15T19:35:47.745Z,45.00
2019-05-15T19:40:39.074Z,43.50
2019-05-15T19:45:29.461Z,43.50
2019-05-15T19:50:20.373Z,44.20
2019-05-15T19:55:11.291Z,44.70
2019-05-15T20:00:02.208Z,45.30
2019-05-15T20:04:53.951Z,44.30
2019-05-15T20:09:44.901Z,44.30
2019-05-15T20:14:38.169Z,43.30
2019-05-15T20:19:28.725Z,44.60
2019-05-15T20:24:18.484Z,44.40
2019-05-15T20:29:09.426Z,45.10
2019-05-15T20:34:05.160Z,45.40
2019-05-15T20:38:51.298Z,45.50
2019-05-15T20:43:42.232Z,44.40
2019-05-15T20:48:33.149Z,43.30
2019-05-15T20:53:24.077Z,44.00
2019-05-15T20:58:14.989Z,44.70
2019-05-15T21:03:08.323Z,45.20
2019-05-15T21:07:56.852Z,45.70
2019-05-15T21:12:48.645Z,45.70
2019-05-15T21:17:39.669Z,44.80
2019-05-15T21:22:30.421Z,44.00
2019-05-15T21:27:24.080Z,43.90
2019-05-15T21:32:13.058Z,45.30
2019-05-15T21:37:03.993Z,45.20
2019-05-15T21:41:54.919Z,45.60
2019-05-15T21:46:48.115Z,45.80
2019-05-15T21:51:38.428Z,45.00
2019-05-15T21:56:28.033Z,43.70
2019-05-15T22:01:19.819Z,44.70
2019-05-15T22:06:10.445Z,44.70
2019-05-15T22:11:01.369Z,45.30
2019-05-15T22:15:52.274Z,45.70
2019-05-15T22:20:43.184Z,46.10
2019-05-15T22:25:34.121Z,45.30
2019-05-15T22:30:25.062Z,43.90
2019-05-15T22:35:18.065Z,43.80
2019-05-15T22:40:08.893Z,45.30
2019-05-15T22:44:58.588Z,45.30
2019-05-15T22:49:49.517Z,45.80
2019-05-15T22:54:40.444Z,46.00
2019-05-15T22:59:31.372Z,45.80
2019-05-15T23:04:22.294Z,44.00
2019-05-15T23:09:13.195Z,43.70
2019-05-15T23:14:04.101Z,44.60
2019-05-15T23:18:55.029Z,45.30
2019-05-15T23:23:48.769Z,46.00
2019-05-15T23:28:38.636Z,45.90
2019-05-15T23:33:28.585Z,46.20
2019-05-15T23:38:19.489Z,44.40
2019-05-15T23:43:11.124Z,44.50
2019-05-15T23:48:02.773Z,45.80
2019-05-15T23:52:54.412Z,45.80
2019-05-15T23:57:52.354Z,45.80
